Terminal Aerodrome Forecast
Issued by NWS Jackson, KY

Home | Current Version | Previous Version | Graphics & Text | Print | Product List | Glossary On
Versions: 1 2 3 4 5 6 7 8 9 10 11 12 13 14 15 16 17 18 19 20 21
000
FTUS43 KJKL 190539
TAFJKL
TAF
KJKL 190539Z 1906/2006 VRB03KT P6SM SCT060 SCT150 BKN250
     FM191000 15004KT 6SM -SHRA BR BKN035 OVC090
     FM191400 16005KT 4SM -SHRA BR SCT015 BKN025 OVC090
     FM191600 19006KT 2SM -SHRA VCTS BKN015CB BKN120
     FM192200 20007G15KT P6SM VCTS BKN035CB BKN250=

USA.gov is the U.S. government's official web portal to all federal, state and local government web resources and services.